Terminal Aerodrome Forecast
Issued by NWS Upton, NY

Home | Current Version | Previous Version | Text Only | Print | Product List | Glossary On
Versions: 1 2 3 4 5 6 7 8 9 10 11 12 13 14 15 16 17 18 19 20 21 22 23 24 25 26 27 28 29 30
000
FTUS41 KOKX 280541
TAFBDR
TAF
KBDR 280541Z 2806/2906 08006KT 4SM BR OVC003
     FM281000 08004KT 1SM -RA BR OVC003
      TEMPO 2810/2814 1/2SM FG
     FM281600 09005KT 1 1/2SM BR OVC008
     FM281900 08004KT 3SM -RA BR OVC010
     FM290000 04004KT 3SM -RA BR OVC008
     FM290400 02005KT 5SM BR OVC015=

USA.gov is the U.S. government's official web portal to all federal, state and local government web resources and services.